Eastern Asia — 3FQP2 — position and weather

sailwx.info

Track history (hours):
 
Tides and Currents Weather Stations Pressure Air Temp Water Temp Dewpoint Dewpoint Depression Visibility Wind Speed Wind Dir Waves Ship Positions

Eastern Asia

Last reported at 2018-Apr-19 04:15 UTC. Time now 2018-Apr-22 06:57 UTC.
Position N 34°58' E 140°21'.

Length 175 m; draft 5 m.

Type: Cargo ship. MMSI: 355530000.

Date/timePositionNaut miles runAvg speedWind from/ knotsBaromVisibWave heightAir tempDewpointWater temp
2018-Apr-19 04:15N 34°58' E 140°21'412.9
2018-Apr-19 03:56N 34°56' E 140°18'612.7
2018-Apr-19 03:27N 34°52' E 140°11'612.4
2018-Apr-19 03:00N 34°49' E 140°06'1412.3
2018-Apr-19 01:51N 34°40' E 139°52'412.8
2018-Apr-19 01:30N 34°38' E 139°48'712.4
2018-Apr-19 00:57N 34°33' E 139°42'612.7
2018-Apr-19 00:27N 34°29' E 139°36'814.6
2018-Apr-18 23:56N 34°25' E 139°28'1214.9
2018-Apr-18 23:06N 34°17' E 139°17'313.0
2018-Apr-18 22:51N 34°17' E 139°13'512.6
2018-Apr-18 22:28N 34°17' E 139°07'1912.3
2018-Apr-18 20:55N 34°10' E 138°45'1012.4
2018-Apr-18 20:06N 34°07' E 138°34'32811.6
2018-Apr-17 15:51N 33°02' E 132°08'1314.2
2018-Apr-17 14:56N 33°13' E 132°00'4 9.7
2018-Apr-17 14:30N 33°17' E 131°59'611.7
2018-Apr-17 14:00N 33°23' E 132°00'612.6
2018-Apr-17 13:30N 33°28' E 132°05'712.3
2018-Apr-17 12:58N 33°32' E 132°11'612.1
2018-Apr-17 12:31N 33°35' E 132°16'612.6
2018-Apr-17 12:00N 33°40' E 132°21'712.7
2018-Apr-17 11:27N 33°45' E 132°27'613.4
2018-Apr-17 11:00N 33°49' E 132°33'612.8
2018-Apr-17 10:30N 33°54' E 132°37'612.8
2018-Apr-17 10:01N 33°59' E 132°43'713.9
2018-Apr-17 09:30N 34°05' E 132°40'713.4
2018-Apr-17 08:58N 34°12' E 132°36'0 0.0
2018-Apr-16 01:05N 34°12' E 132°36'0 4.1
2018-Apr-16 01:00N 34°12' E 132°36'1 0.5
2018-Apr-15 23:14N 34°12' E 132°37'1 3.2
2018-Apr-15 23:00N 34°12' E 132°36'  
2018-Apr-12 22:42N 34°12' E 132°36'1 3.0
2018-Apr-12 22:28N 34°12' E 132°37'0 0.0
2018-Apr-12 17:04N 34°12' E 132°37'0 0.1
2018-Apr-12 15:55N 34°12' E 132°37'0 0.0
2018-Apr-12 08:34N 34°12' E 132°37'0 0.7
2018-Apr-12 08:21N 34°12' E 132°37'2 4.5
2018-Apr-12 07:59N 34°10' E 132°38'3 6.6
2018-Apr-12 07:30N 34°07' E 132°39'4 7.8
2018-Apr-12 07:00N 34°04' E 132°41'5 9.7
2018-Apr-12 06:30N 33°59' E 132°43'5 9.2
2018-Apr-12 06:00N 33°56' E 132°40'711.0
2018-Apr-12 05:25N 33°51' E 132°34'3012.7
2018-Apr-12 03:04N 33°31' E 132°08'112.5
2018-Apr-12 03:00N 33°30' E 132°07'712.6
2018-Apr-12 02:29N 33°25' E 132°02'510.3
2018-Apr-12 02:00N 33°21' E 131°59'510.4
2018-Apr-12 01:30N 33°17' E 132°02'  
Track history (hours):
 
Tides and Currents Weather Stations Pressure Air Temp Water Temp Dewpoint Dewpoint Depression Visibility Wind Speed Wind Dir Waves Ship Positions

Eastern Asia

Last reported at 2018-Apr-19 04:15 UTC. Time now 2018-Apr-22 06:57 UTC.
Position N 34°58' E 140°21'.

Length 175 m; draft 5 m.

Type: Cargo ship. MMSI: 355530000.

Date/timePositionNaut miles runAvg speedWind from/ knotsBaromVisibWave heightAir tempDewpointWater temp
2018-Apr-19 04:15N 34°58' E 140°21'412.9
2018-Apr-19 03:56N 34°56' E 140°18'612.7
2018-Apr-19 03:27N 34°52' E 140°11'612.4
2018-Apr-19 03:00N 34°49' E 140°06'1412.3
2018-Apr-19 01:51N 34°40' E 139°52'412.8
2018-Apr-19 01:30N 34°38' E 139°48'712.4
2018-Apr-19 00:57N 34°33' E 139°42'612.7
2018-Apr-19 00:27N 34°29' E 139°36'814.6
2018-Apr-18 23:56N 34°25' E 139°28'1214.9
2018-Apr-18 23:06N 34°17' E 139°17'313.0
2018-Apr-18 22:51N 34°17' E 139°13'512.6
2018-Apr-18 22:28N 34°17' E 139°07'1912.3
2018-Apr-18 20:55N 34°10' E 138°45'1012.4
2018-Apr-18 20:06N 34°07' E 138°34'32811.6
2018-Apr-17 15:51N 33°02' E 132°08'1314.2
2018-Apr-17 14:56N 33°13' E 132°00'4 9.7
2018-Apr-17 14:30N 33°17' E 131°59'611.7
2018-Apr-17 14:00N 33°23' E 132°00'612.6
2018-Apr-17 13:30N 33°28' E 132°05'712.3
2018-Apr-17 12:58N 33°32' E 132°11'612.1
2018-Apr-17 12:31N 33°35' E 132°16'612.6
2018-Apr-17 12:00N 33°40' E 132°21'712.7
2018-Apr-17 11:27N 33°45' E 132°27'613.4
2018-Apr-17 11:00N 33°49' E 132°33'612.8
2018-Apr-17 10:30N 33°54' E 132°37'612.8
2018-Apr-17 10:01N 33°59' E 132°43'713.9
2018-Apr-17 09:30N 34°05' E 132°40'713.4
2018-Apr-17 08:58N 34°12' E 132°36'0 0.0
2018-Apr-16 01:05N 34°12' E 132°36'0 4.1
2018-Apr-16 01:00N 34°12' E 132°36'1 0.5
2018-Apr-15 23:14N 34°12' E 132°37'1 3.2
2018-Apr-15 23:00N 34°12' E 132°36'  
2018-Apr-12 22:42N 34°12' E 132°36'1 3.0
2018-Apr-12 22:28N 34°12' E 132°37'0 0.0
2018-Apr-12 17:04N 34°12' E 132°37'0 0.1
2018-Apr-12 15:55N 34°12' E 132°37'0 0.0
2018-Apr-12 08:34N 34°12' E 132°37'0 0.7
2018-Apr-12 08:21N 34°12' E 132°37'2 4.5
2018-Apr-12 07:59N 34°10' E 132°38'3 6.6
2018-Apr-12 07:30N 34°07' E 132°39'4 7.8
2018-Apr-12 07:00N 34°04' E 132°41'5 9.7
2018-Apr-12 06:30N 33°59' E 132°43'5 9.2
2018-Apr-12 06:00N 33°56' E 132°40'711.0
2018-Apr-12 05:25N 33°51' E 132°34'3012.7
2018-Apr-12 03:04N 33°31' E 132°08'112.5
2018-Apr-12 03:00N 33°30' E 132°07'712.6
2018-Apr-12 02:29N 33°25' E 132°02'510.3
2018-Apr-12 02:00N 33°21' E 131°59'510.4
2018-Apr-12 01:30N 33°17' E 132°02'  

Dump ship's entire track history